createdAt,value
2022-09-28T00:01:37.728Z,8.50
2022-09-28T00:04:24.761Z,8.50
2022-09-28T00:07:12.066Z,8.50
2022-09-28T00:09:59.889Z,8.60
2022-09-28T00:12:47.226Z,8.50
2022-09-28T00:15:34.377Z,8.60
2022-09-28T00:18:23.260Z,8.60
2022-09-28T00:21:13.225Z,8.60
2022-09-28T00:24:15.158Z,8.60
2022-09-28T00:27:02.930Z,8.50
2022-09-28T00:29:50.243Z,8.60
2022-09-28T00:32:37.726Z,8.60
2022-09-28T00:35:26.390Z,8.60
2022-09-28T00:38:16.656Z,8.70
2022-09-28T00:41:05.379Z,8.60
2022-09-28T00:43:53.069Z,8.60
2022-09-28T00:46:40.890Z,8.60
2022-09-28T00:49:34.944Z,8.60
2022-09-28T00:52:28.992Z,8.70
2022-09-28T00:55:19.145Z,8.70
2022-09-28T00:58:09.834Z,8.70
2022-09-28T01:00:58.908Z,8.70
2022-09-28T01:03:48.617Z,8.80
2022-09-28T01:06:39.020Z,8.80
2022-09-28T01:09:28.827Z,8.80
2022-09-28T01:12:16.271Z,8.80
2022-09-28T01:15:04.669Z,8.80
2022-09-28T01:18:08.198Z,8.70
2022-09-28T01:21:03.908Z,8.80
2022-09-28T01:24:15.157Z,8.80
2022-09-28T01:27:10.880Z,8.80
2022-09-28T01:30:05.435Z,8.80
2022-09-28T01:32:57.041Z,8.80
2022-09-28T01:35:50.026Z,8.80
2022-09-28T01:38:42.596Z,8.80
2022-09-28T01:41:31.561Z,8.80
2022-09-28T01:44:22.613Z,8.90
2022-09-28T01:47:13.407Z,8.90
2022-09-28T01:50:05.865Z,8.90
2022-09-28T01:52:56.076Z,9.00
2022-09-28T01:55:48.798Z,9.00
2022-09-28T01:58:42.087Z,9.00
2022-09-28T02:01:38.355Z,9.00
2022-09-28T02:04:31.086Z,8.90
2022-09-28T02:07:24.859Z,8.90
2022-09-28T02:10:15.982Z,8.90
2022-09-28T02:13:06.857Z,9.00
2022-09-28T02:15:59.264Z,8.90
2022-09-28T02:18:48.046Z,8.90
2022-09-28T02:21:42.635Z,8.90
2022-09-28T02:24:36.877Z,8.90
2022-09-28T02:27:33.166Z,8.90
2022-09-28T02:30:20.575Z,8.90
2022-09-28T02:33:13.227Z,8.90
2022-09-28T02:36:03.425Z,8.90
2022-09-28T02:38:54.070Z,8.90
2022-09-28T02:41:55.881Z,8.90
2022-09-28T02:45:01.110Z,8.80
2022-09-28T02:48:04.189Z,8.80
2022-09-28T02:51:04.011Z,8.70
2022-09-28T02:54:22.776Z,8.80
2022-09-28T02:57:18.838Z,8.80
2022-09-28T03:00:08.654Z,8.70
2022-09-28T03:03:05.137Z,8.80
2022-09-28T03:06:01.426Z,8.70
2022-09-28T03:09:01.329Z,8.70
2022-09-28T03:11:56.701Z,8.70
2022-09-28T03:14:43.738Z,8.70
2022-09-28T03:17:31.350Z,8.70
2022-09-28T03:20:18.567Z,8.70
2022-09-28T03:23:23.920Z,8.60
2022-09-28T03:26:13.956Z,8.60
2022-09-28T03:29:01.115Z,8.60
2022-09-28T03:31:49.115Z,8.60
2022-09-28T03:34:36.509Z,8.60
2022-09-28T03:37:23.682Z,8.60
2022-09-28T03:40:11.544Z,8.60
2022-09-28T03:43:01.200Z,8.60
2022-09-28T03:45:53.862Z,8.60
2022-09-28T03:48:41.754Z,8.50
2022-09-28T03:51:30.551Z,8.40
2022-09-28T03:54:17.604Z,8.30
2022-09-28T03:57:04.973Z,8.20
2022-09-28T03:59:53.702Z,8.20
2022-09-28T04:02:41.093Z,8.20
2022-09-28T04:05:28.712Z,8.10
2022-09-28T04:08:16.022Z,7.90
2022-09-28T04:11:03.211Z,7.70
2022-09-28T04:13:50.744Z,7.80
2022-09-28T04:16:39.339Z,7.80
2022-09-28T04:19:31.823Z,7.70
2022-09-28T04:22:31.187Z,7.60
2022-09-28T04:25:18.481Z,7.70
2022-09-28T04:28:23.233Z,7.80
2022-09-28T04:31:12.115Z,7.80
2022-09-28T04:34:00.682Z,7.70
2022-09-28T04:36:48.827Z,7.80
2022-09-28T04:39:35.858Z,7.90
2022-09-28T04:42:23.075Z,8.00
2022-09-28T04:45:11.905Z,8.10
2022-09-28T04:48:03.333Z,8.20
2022-09-28T04:51:05.616Z,8.10
2022-09-28T04:53:52.797Z,8.20
2022-09-28T04:56:41.141Z,8.20
2022-09-28T04:59:28.321Z,8.20
2022-09-28T05:02:15.625Z,8.20
2022-09-28T05:05:21.419Z,8.20
2022-09-28T05:08:26.291Z,8.20
2022-09-28T05:11:14.733Z,8.20
2022-09-28T05:14:02.187Z,8.20
2022-09-28T05:16:49.217Z,8.30
2022-09-28T05:19:56.534Z,8.30
2022-09-28T05:22:43.455Z,8.30
2022-09-28T05:25:32.100Z,8.30
2022-09-28T05:28:31.926Z,8.30
2022-09-28T05:31:45.207Z,8.30
2022-09-28T05:34:40.947Z,8.30
2022-09-28T05:37:31.026Z,8.40
2022-09-28T05:40:18.809Z,8.40
2022-09-28T05:43:07.311Z,8.50
2022-09-28T05:45:55.864Z,8.50
2022-09-28T05:48:42.998Z,8.60
2022-09-28T05:51:30.170Z,8.60
2022-09-28T05:54:18.198Z,8.60
2022-09-28T05:57:07.183Z,8.60
2022-09-28T05:59:56.346Z,8.70
2022-09-28T06:02:43.755Z,8.70
2022-09-28T06:05:36.058Z,8.80
2022-09-28T06:08:23.388Z,8.80
2022-09-28T06:11:18.689Z,8.80
2022-09-28T06:14:06.327Z,8.90
2022-09-28T06:16:55.095Z,8.90
2022-09-28T06:19:44.069Z,9.00
2022-09-28T06:22:57.469Z,9.10
2022-09-28T06:25:45.082Z,9.30
2022-09-28T06:28:32.192Z,9.80
2022-09-28T06:31:19.812Z,10.30
2022-09-28T06:34:12.658Z,10.90
2022-09-28T06:36:59.836Z,11.10
2022-09-28T06:39:47.883Z,11.70
2022-09-28T06:42:35.301Z,12.00
2022-09-28T06:45:41.002Z,12.20
2022-09-28T06:48:42.705Z,12.20
2022-09-28T06:51:34.203Z,12.10
2022-09-28T06:54:31.532Z,12.10
2022-09-28T06:57:27.395Z,12.40
2022-09-28T07:00:15.762Z,12.60
2022-09-28T07:03:08.443Z,12.70
2022-09-28T07:06:16.265Z,12.70
2022-09-28T07:09:35.883Z,12.80
2022-09-28T07:12:36.159Z,12.70
2022-09-28T07:15:32.818Z,12.60
2022-09-28T07:18:20.626Z,12.60
2022-09-28T07:21:12.191Z,12.60
2022-09-28T07:24:04.091Z,13.00
2022-09-28T07:27:11.373Z,13.60
2022-09-28T07:30:13.838Z,13.60
2022-09-28T07:33:22.017Z,13.70
2022-09-28T07:36:29.846Z,13.60
2022-09-28T07:39:17.713Z,13.20
2022-09-28T07:42:03.869Z,12.90
2022-09-28T07:44:53.243Z,13.10
2022-09-28T07:47:40.236Z,13.10
2022-09-28T07:50:51.619Z,13.10
2022-09-28T07:54:11.257Z,12.80
2022-09-28T07:57:16.292Z,12.80
2022-09-28T08:00:14.061Z,12.70
2022-09-28T08:03:01.916Z,12.70
2022-09-28T08:05:51.200Z,12.50
2022-09-28T08:08:38.775Z,12.40
2022-09-28T08:11:26.107Z,12.40
2022-09-28T08:14:34.605Z,12.40
2022-09-28T08:17:38.341Z,12.60
2022-09-28T08:20:48.184Z,12.40
2022-09-28T08:23:38.817Z,12.50
2022-09-28T08:26:26.776Z,12.70
2022-09-28T08:29:15.227Z,12.60
2022-09-28T08:32:18.289Z,12.40
2022-09-28T08:35:26.226Z,12.30
2022-09-28T08:38:30.955Z,12.20
2022-09-28T08:41:46.380Z,12.10
2022-09-28T08:44:48.919Z,12.30
2022-09-28T08:48:10.451Z,12.30
2022-09-28T08:51:29.912Z,12.40
2022-09-28T08:54:41.687Z,12.40
2022-09-28T08:57:41.938Z,12.60
2022-09-28T09:00:34.953Z,12.60
2022-09-28T09:03:26.378Z,12.60
2022-09-28T09:06:41.222Z,12.60
2022-09-28T09:09:58.500Z,12.40
2022-09-28T09:15:54.049Z,12.90
2022-09-28T09:19:10.934Z,12.70
2022-09-28T09:22:18.325Z,12.80
2022-09-28T09:25:19.123Z,13.50
2022-09-28T09:28:45.190Z,13.60
2022-09-28T09:31:44.795Z,13.60
2022-09-28T09:34:56.661Z,14.00
2022-09-28T09:38:22.003Z,14.70
2022-09-28T09:41:38.126Z,15.40
2022-09-28T09:45:11.295Z,15.00
2022-09-28T09:48:25.186Z,15.60
2022-09-28T09:51:20.582Z,14.70
2022-09-28T09:54:17.620Z,14.60
2022-09-28T09:57:11.101Z,14.50
2022-09-28T10:00:14.510Z,14.60
2022-09-28T10:03:07.386Z,14.30
2022-09-28T10:06:02.863Z,14.20
2022-09-28T10:08:58.630Z,13.90
2022-09-28T10:11:50.163Z,13.60
2022-09-28T10:14:37.393Z,13.40
2022-09-28T10:17:28.140Z,13.10
2022-09-28T10:20:54.086Z,12.90
2022-09-28T10:23:56.313Z,13.00
2022-09-28T10:26:47.774Z,12.70
2022-09-28T10:29:45.207Z,13.10
2022-09-28T10:32:39.219Z,13.20
2022-09-28T10:35:30.031Z,13.20
2022-09-28T10:38:20.885Z,13.10
2022-09-28T10:41:13.433Z,13.10
2022-09-28T10:44:22.912Z,13.10
2022-09-28T10:47:25.057Z,12.80
2022-09-28T10:50:22.079Z,12.60
2022-09-28T10:53:17.534Z,12.40
2022-09-28T10:56:32.775Z,12.30
2022-09-28T10:59:36.686Z,12.20
2022-09-28T11:02:43.240Z,12.20
2022-09-28T11:05:35.925Z,12.20
2022-09-28T11:08:28.230Z,12.10
2022-09-28T11:11:20.402Z,11.90
2022-09-28T11:14:26.258Z,11.70
2022-09-28T11:17:25.533Z,11.90
2022-09-28T11:20:34.458Z,11.90
2022-09-28T11:23:31.101Z,11.90
2022-09-28T11:26:26.547Z,11.80
2022-09-28T11:29:22.304Z,11.90
2022-09-28T11:32:22.759Z,12.00
2022-09-28T11:35:42.381Z,11.90
2022-09-28T11:38:34.869Z,11.90
2022-09-28T11:41:48.758Z,11.80
2022-09-28T11:44:44.535Z,11.60
2022-09-28T11:47:45.793Z,11.80
2022-09-28T11:50:45.785Z,11.90
2022-09-28T11:53:36.975Z,12.10
2022-09-28T11:56:33.361Z,12.10
2022-09-28T11:59:27.528Z,12.10
2022-09-28T12:02:22.097Z,12.00
2022-09-28T12:05:21.133Z,11.90
2022-09-28T12:08:17.314Z,11.90
2022-09-28T12:11:22.687Z,11.90
2022-09-28T12:14:41.600Z,11.90
2022-09-28T12:17:34.931Z,11.80
2022-09-28T12:20:26.536Z,11.80
2022-09-28T12:23:19.369Z,11.80
2022-09-28T12:26:16.603Z,11.90
2022-09-28T12:29:07.641Z,12.00
2022-09-28T12:32:05.367Z,12.10
2022-09-28T12:34:52.676Z,12.00
2022-09-28T12:37:56.570Z,12.00
2022-09-28T12:40:53.536Z,12.00
2022-09-28T12:44:02.098Z,11.90
2022-09-28T12:47:13.851Z,12.00
2022-09-28T12:50:37.951Z,12.10
2022-09-28T12:53:40.098Z,12.10
2022-09-28T12:56:40.819Z,12.20
2022-09-28T12:59:32.971Z,12.20
2022-09-28T13:02:39.633Z,12.20
2022-09-28T13:05:58.009Z,11.80
2022-09-28T13:08:57.544Z,11.80
2022-09-28T13:12:09.911Z,11.70
2022-09-28T13:15:23.593Z,11.50
2022-09-28T13:18:19.782Z,11.50
2022-09-28T13:21:15.993Z,11.50
2022-09-28T13:24:27.867Z,11.40
2022-09-28T13:27:19.309Z,11.60
2022-09-28T13:30:07.899Z,11.70
2022-09-28T13:32:57.626Z,11.80
2022-09-28T13:35:44.952Z,11.80
2022-09-28T13:38:50.210Z,11.70
2022-09-28T13:41:38.772Z,11.80
2022-09-28T13:44:42.522Z,11.80
2022-09-28T13:47:56.157Z,11.90
2022-09-28T13:51:08.521Z,12.10
2022-09-28T13:54:23.259Z,12.20
2022-09-28T13:57:19.828Z,12.10
2022-09-28T14:00:21.745Z,12.20
2022-09-28T14:03:25.166Z,12.10
2022-09-28T14:06:27.241Z,12.20
2022-09-28T14:09:43.779Z,12.40
2022-09-28T14:12:47.458Z,12.40
2022-09-28T14:15:45.918Z,12.20
2022-09-28T14:18:34.558Z,12.30
2022-09-28T14:21:59.237Z,12.40
2022-09-28T14:25:04.176Z,12.30
2022-09-28T14:28:03.422Z,12.30
2022-09-28T14:30:58.049Z,12.40
2022-09-28T14:33:56.958Z,12.30
2022-09-28T14:37:07.434Z,12.30
2022-09-28T14:40:20.868Z,12.20
2022-09-28T14:43:24.612Z,12.30
2022-09-28T14:46:29.368Z,12.30
2022-09-28T14:49:51.240Z,12.40
2022-09-28T14:52:42.669Z,12.40
2022-09-28T14:55:33.761Z,12.30
2022-09-28T14:58:25.046Z,12.30
2022-09-28T15:01:20.166Z,12.10
2022-09-28T15:04:13.534Z,12.10
2022-09-28T15:07:00.714Z,12.10
2022-09-28T15:09:50.569Z,12.10
2022-09-28T15:12:37.664Z,12.00
2022-09-28T15:15:29.423Z,11.80
2022-09-28T15:18:58.619Z,11.70
2022-09-28T15:21:48.583Z,11.70
2022-09-28T15:24:36.092Z,11.60
2022-09-28T15:27:23.749Z,11.60
2022-09-28T15:30:22.383Z,11.70
2022-09-28T15:33:42.497Z,11.60
2022-09-28T15:36:32.581Z,11.60
2022-09-28T15:39:24.289Z,11.50
2022-09-28T15:42:11.607Z,11.60
2022-09-28T15:45:06.115Z,11.50
2022-09-28T15:47:58.426Z,11.40
2022-09-28T15:50:59.162Z,11.50
2022-09-28T15:53:52.917Z,11.50
2022-09-28T15:56:54.733Z,11.50
2022-09-28T15:59:43.901Z,11.50
2022-09-28T16:02:31.317Z,11.40
2022-09-28T16:05:35.998Z,11.30
2022-09-28T16:08:25.560Z,11.40
2022-09-28T16:11:18.148Z,11.30
2022-09-28T16:14:18.230Z,11.30
2022-09-28T16:17:05.617Z,11.20
2022-09-28T16:19:53.031Z,11.10
2022-09-28T16:22:43.969Z,11.00
2022-09-28T16:25:31.442Z,11.10
2022-09-28T16:28:28.834Z,11.10
2022-09-28T16:31:34.462Z,11.10
2022-09-28T16:34:26.372Z,11.10
2022-09-28T16:37:32.176Z,11.10
2022-09-28T16:40:19.113Z,11.00
2022-09-28T16:43:08.363Z,11.00
2022-09-28T16:45:57.972Z,11.00
2022-09-28T16:48:49.469Z,10.90
2022-09-28T16:51:40.041Z,10.90
2022-09-28T16:54:44.671Z,10.90
2022-09-28T16:57:31.763Z,10.80
2022-09-28T17:00:22.834Z,10.90
2022-09-28T17:03:14.988Z,10.80
2022-09-28T17:06:06.094Z,10.70
2022-09-28T17:08:55.059Z,10.70
2022-09-28T17:11:42.103Z,10.60
2022-09-28T17:14:29.479Z,10.60
2022-09-28T17:17:17.312Z,10.60
2022-09-28T17:20:16.786Z,10.50
2022-09-28T17:23:05.378Z,10.60
2022-09-28T17:25:54.476Z,10.60
2022-09-28T17:28:41.929Z,10.60
2022-09-28T17:31:29.960Z,10.50
2022-09-28T17:34:17.744Z,10.60
2022-09-28T17:37:04.822Z,10.60
2022-09-28T17:39:53.690Z,10.60
2022-09-28T17:42:41.028Z,10.50
2022-09-28T17:45:31.328Z,10.50
2022-09-28T17:48:23.331Z,10.60
2022-09-28T17:51:10.870Z,10.50
2022-09-28T17:53:58.798Z,10.60
2022-09-28T17:56:47.320Z,10.50
2022-09-28T17:59:34.639Z,10.40
2022-09-28T18:02:25.090Z,10.40
2022-09-28T18:05:14.622Z,10.30
2022-09-28T18:08:02.236Z,10.30
2022-09-28T18:10:51.480Z,10.40
2022-09-28T18:13:40.579Z,10.30
2022-09-28T18:16:28.643Z,10.40
2022-09-28T18:19:16.103Z,10.40
2022-09-28T18:22:03.171Z,10.40
2022-09-28T18:24:50.331Z,10.30
2022-09-28T18:27:37.369Z,10.40
2022-09-28T18:30:26.108Z,10.30
2022-09-28T18:33:14.493Z,10.20
2022-09-28T18:36:02.134Z,10.30
2022-09-28T18:38:50.148Z,10.30
2022-09-28T18:41:37.598Z,10.30
2022-09-28T18:44:25.098Z,10.20
2022-09-28T18:47:15.032Z,10.30
2022-09-28T18:50:02.195Z,10.20
2022-09-28T18:52:49.445Z,10.20
2022-09-28T18:55:37.362Z,10.20
2022-09-28T18:58:24.684Z,10.30
2022-09-28T19:01:30.904Z,10.20
2022-09-28T19:04:21.110Z,10.20
2022-09-28T19:07:08.978Z,10.10
2022-09-28T19:09:56.255Z,10.00
2022-09-28T19:12:43.968Z,9.80
2022-09-28T19:15:31.725Z,9.60
2022-09-28T19:18:19.483Z,9.50
2022-09-28T19:21:10.342Z,9.60
2022-09-28T19:24:01.090Z,9.60
2022-09-28T19:26:49.463Z,9.60
2022-09-28T19:29:36.681Z,9.60
2022-09-28T19:32:23.823Z,9.60
2022-09-28T19:35:11.398Z,9.60
2022-09-28T19:38:00.043Z,9.60
2022-09-28T19:40:47.538Z,9.60
2022-09-28T19:43:34.896Z,9.50
2022-09-28T19:46:22.421Z,9.30
2022-09-28T19:49:12.443Z,9.20
2022-09-28T19:52:16.183Z,9.20
2022-09-28T19:55:05.916Z,9.30
2022-09-28T19:57:53.422Z,9.30
2022-09-28T20:00:40.514Z,9.30
2022-09-28T20:03:28.215Z,9.30
2022-09-28T20:06:17.423Z,9.20
2022-09-28T20:09:05.743Z,9.20
2022-09-28T20:11:54.589Z,9.20
2022-09-28T20:14:41.627Z,9.20
2022-09-28T20:17:29.232Z,9.10
2022-09-28T20:20:16.614Z,9.00
2022-09-28T20:23:04.580Z,8.80
2022-09-28T20:25:53.616Z,8.70
2022-09-28T20:28:43.099Z,8.60
2022-09-28T20:31:30.298Z,8.60
2022-09-28T20:34:17.713Z,8.60
2022-09-28T20:37:05.305Z,8.70
2022-09-28T20:39:53.131Z,8.80
2022-09-28T20:42:42.067Z,8.90
2022-09-28T20:45:30.456Z,8.90
2022-09-28T20:48:18.239Z,8.90
2022-09-28T20:51:10.145Z,9.00
2022-09-28T20:53:59.009Z,9.00
2022-09-28T20:56:48.025Z,9.00
2022-09-28T20:59:35.120Z,9.10
2022-09-28T21:02:23.722Z,9.10
2022-09-28T21:05:10.740Z,9.10
2022-09-28T21:07:59.456Z,9.10
2022-09-28T21:10:46.767Z,9.10
2022-09-28T21:13:34.751Z,9.20
2022-09-28T21:16:22.595Z,9.20
2022-09-28T21:19:10.845Z,9.30
2022-09-28T21:21:58.304Z,9.20
2022-09-28T21:24:45.350Z,9.10
2022-09-28T21:27:32.706Z,9.20
2022-09-28T21:30:20.130Z,9.20
2022-09-28T21:33:07.466Z,9.20
2022-09-28T21:35:56.090Z,9.10
2022-09-28T21:38:43.371Z,9.10
2022-09-28T21:41:30.781Z,9.10
2022-09-28T21:44:17.956Z,9.10
2022-09-28T21:47:05.498Z,9.10
2022-09-28T21:49:52.785Z,9.20
2022-09-28T21:52:41.189Z,9.10
2022-09-28T21:55:28.458Z,9.20
2022-09-28T21:58:15.884Z,9.20
2022-09-28T22:01:05.445Z,9.20
2022-09-28T22:03:54.163Z,9.20
2022-09-28T22:06:41.566Z,9.20
2022-09-28T22:09:30.311Z,9.20
2022-09-28T22:12:17.747Z,9.20
2022-09-28T22:15:05.865Z,9.20
2022-09-28T22:17:53.051Z,9.30
2022-09-28T22:20:40.340Z,9.20
2022-09-28T22:23:27.650Z,9.30
2022-09-28T22:26:19.384Z,9.30
2022-09-28T22:29:08.654Z,9.30
2022-09-28T22:32:00.136Z,9.30
2022-09-28T22:34:47.266Z,9.20
2022-09-28T22:37:34.435Z,9.20
2022-09-28T22:40:21.619Z,9.20
2022-09-28T22:43:10.198Z,9.20
2022-09-28T22:46:05.239Z,9.20
2022-09-28T22:48:53.625Z,9.10
2022-09-28T22:51:40.810Z,9.10
2022-09-28T22:54:28.149Z,9.10
2022-09-28T22:57:15.358Z,9.10
2022-09-28T23:00:04.668Z,9.10
2022-09-28T23:02:51.953Z,9.10
2022-09-28T23:05:39.090Z,9.10
2022-09-28T23:08:26.347Z,9.10
2022-09-28T23:11:13.744Z,9.10
2022-09-28T23:14:01.040Z,8.90
2022-09-28T23:16:49.528Z,9.00
2022-09-28T23:19:36.491Z,9.00
2022-09-28T23:22:23.721Z,8.90
2022-09-28T23:25:11.143Z,8.90
2022-09-28T23:27:58.313Z,8.80
2022-09-28T23:30:45.535Z,8.80
2022-09-28T23:33:34.479Z,8.70
2022-09-28T23:36:21.873Z,8.70
2022-09-28T23:39:11.659Z,8.60
2022-09-28T23:41:59.341Z,8.60
2022-09-28T23:44:46.561Z,8.60
2022-09-28T23:47:33.993Z,8.60
2022-09-28T23:50:23.678Z,8.60
2022-09-28T23:53:11.751Z,8.50
2022-09-28T23:55:59.143Z,8.50
2022-09-28T23:58:46.362Z,8.50
